Airfield :
LOGIN :

Register | Disclaimer

   EN    FR    IT 

 










Legend :    VFR   Marginal VFR   IFR   Intensive IFR   Very Intensive IFR
Visi :
Ceiling :
>= 8 km
>= 3000ft
5 to 8 km
1000 to 3000 ft
1500m to 5 km
500 to 1000 ft
800 to 1500m
200 to 500 ft
< 800m
< 200 ft
Symbols :   Thunderstorms  Fog  Heavy snow  Heavy precipitations  Wind > 20 kt
SIGMETs :     Misc.  Thunderstorms  Icing  Turbulence  Mountain Waves  Volcanic Ashes






- Airport Elevation : 142 ft
- IATA code : FLR


LIRQ - Firenze Amerigo Vespucci

CURRENT METAR :
  • 241050Z 21008KT 160V280 9999 SCT050 15/04 Q1008

EXPIRED METARs :
  • 241020Z 20007KT 160V250 9999 SCT050 14/05 Q1008
  • 240950Z 19006KT 9999 SCT050 13/05 Q1008
  • 240920Z 17006KT 150V210 9999 SCT050 13/05 Q1008
  • 240850Z 16003KT 120V200 9999 FEW050 12/06 Q1008
  • 240820Z 16004KT 110V190 9999 FEW050 11/06 Q1008
  • 240750Z 11003KT 9999 FEW050 10/06 Q1007
  • 240720Z VRB02KT 9999 FEW050 09/06 Q1007
  • 240650Z 09004KT 070V130 9999 FEW040 07/05 Q1007
  • 240620Z 08004KT 330V140 9999 SCT040 07/05 Q1007

TAF TAF LIRQ
Valid from the 24 at 06:00 until the 25 at 06:00 UTC


240500Z 2406/2506 VRB06KT 9999 SCT025
TEMPO 2412/2418 SHRA



MET'MAP, your aeronautical weather chart ! - Copyright ORBIFLY December 2007 - Disclaimer

ORBIFLY MET'MAP TEAM :

Programming & Development : Alexandra Zaïnal
Original concept : Baudouin d'Aumeries
Technical & hardware support : Manuel Goepfert
Assistance : Marc-Olivier Méhu




SOURCES & CREDITS :

   NOAA